LFKB

Bastia-Poretta Airport

Bastia/Poretta, France
TAF AMD LFKB 211234Z 2112/2209 12010KT 9999 FEW040 TEMPO 2112/2117 FEW035TCU SCT130 BKN200 PROB30 TEMPO 2112/2116 FEW030CB BECMG 2118/2121 VRB05KT TX30/2113Z TN19/2204Z
Issued Valid From Valid To
Jun-21 @ 12:34 UTC
(6 hours ago)
Jun-21 @ 12:00 UTC
(6 hours ago)
Jun-22 @ 09:00 UTC
(in 15 hours)
Expired Click to View Jun-21 @ 12:00 to Jun-21 @ 18:00
TAF AMD LFKB 211234Z 2112/2209 12010KT 9999 FEW040
Wind Visibility Clouds
120° at 10 knots 10,000+ meters
  • Few at 4,000' AGL
Expired Click to View Jun-21 @ 12:00 to Jun-21 @ 16:00
PROB30 TEMPO 2112/2116 FEW030CB
Clouds
  • Few at 3,000' AGL
Expired Click to View Jun-21 @ 12:00 to Jun-21 @ 17:00
TEMPO 2112/2117 FEW035TCU SCT130 BKN200
Clouds
  • Few at 3,500' AGL
  • Scattered at 13,000' AGL
  • Broken at 20,000' AGL
Becoming Jun-21 @ 18:00 to Jun-22 @ 09:00
BECMG 2118/2121 VRB05KT TX30/2113Z TN19/2204Z
Wind Visibility Clouds
Variable at 5 knots 10,000+ meters
  • Few at 4,000' AGL
TAF AMD LFKB 211234Z 2112/2209 12010KT 9999 FEW040 TEMPO 2112/2117 FEW035TCU SCT130 BKN200 PROB30 TEMPO 2112/2116 FEW030CB BECMG 2118/2121 VRB05KT TX30/2113Z TN19/2204Z
Issued Jun-21 @ 12:34 UTC
(6 hours ago)
Valid From Jun-21 @ 12:00 UTC
(6 hours ago)
Valid To Jun-22 @ 09:00 UTC
(in 15 hours)
Jun-21 @ 12:00 - Jun-21 @ 18:00
Wind Visibility
120° at 10 knots 10,000+ meters
Clouds
  • Few at 4,000' AGL
Jun-21 @ 12:00 - Jun-21 @ 16:00
Clouds
  • Few at 3,000' AGL
Jun-21 @ 12:00 - Jun-21 @ 17:00
Clouds
  • Few at 3,500' AGL
  • Scattered at 13,000' AGL
  • Broken at 20,000' AGL
Becoming Jun-21 @ 18:00 - Jun-22 @ 09:00
Wind Visibility
Variable at 5 knots 10,000+ meters
Clouds
  • Few at 4,000' AGL